Time;durP1;ratioP1;P1;durP2;ratioP2;P2;SDS_P1;SDS_P2;PMS_P1;PMS_P2;Temp;Humidity;BMP_temperature;BMP_pressure;BME280_temperature;BME280_humidity;BME280_pressure;Samples;Min_cycle;Max_cycle;Signal;HPM_P1;HPM_P2
2022/09/10 00:01:22;;;;;;;3.78;1.80;;;16.60;99.90;;;;;;5060183;28;20029;-86
2022/09/10 00:03:49;;;;;;;4.20;1.60;;;16.60;99.90;;;;;;5076361;28;20063;-85
2022/09/10 00:06:16;;;;;;;3.05;1.67;;;16.60;99.90;;;;;;5059480;28;20079;-88
2022/09/10 00:08:43;;;;;;;2.35;1.02;;;16.60;99.90;;;;;;5078624;28;20024;-87
2022/09/10 00:11:09;;;;;;;3.08;1.33;;;16.60;99.90;;;;;;5061502;28;20073;-86
2022/09/10 00:13:38;;;;;;;2.67;1.27;;;16.70;99.90;;;;;;5077405;28;20041;-86
2022/09/10 00:16:06;;;;;;;7.00;1.52;;;16.60;99.90;;;;;;5037523;28;20032;-89
2022/09/10 00:18:33;;;;;;;3.65;1.40;;;16.60;99.90;;;;;;5069870;28;20023;-88
2022/09/10 00:21:00;;;;;;;2.67;1.27;;;16.60;99.90;;;;;;5071209;28;20039;-89
2022/09/10 00:23:27;;;;;;;4.13;1.70;;;16.50;99.90;;;;;;5069695;28;20029;-89
2022/09/10 00:25:55;;;;;;;2.58;1.52;;;16.50;99.90;;;;;;5069426;28;20017;-87
2022/09/10 00:28:22;;;;;;;3.80;1.55;;;16.50;99.90;;;;;;5057127;28;20036;-89
2022/09/10 00:30:50;;;;;;;4.35;1.10;;;16.50;99.90;;;;;;5053359;28;20029;-87
2022/09/10 00:33:18;;;;;;;1.80;1.10;;;16.50;99.90;;;;;;5056258;28;20035;-88
2022/09/10 00:35:45;;;;;;;2.25;1.05;;;16.50;99.90;;;;;;5055283;28;20025;-87
2022/09/10 00:38:13;;;;;;;3.08;1.33;;;16.50;99.90;;;;;;5069234;28;20040;-89
2022/09/10 00:40:40;;;;;;;1.27;0.93;;;16.50;99.90;;;;;;5069190;28;20107;-88
2022/09/10 00:43:15;;;;;;;1.83;1.08;;;16.50;99.90;;;;;;5051547;28;20037;-89
2022/09/10 00:45:42;;;;;;;3.55;1.45;;;16.40;99.90;;;;;;5069369;28;20055;-87
2022/09/10 00:48:24;;;;;;;2.70;1.17;;;16.40;99.90;;;;;;5033870;28;20071;-89
2022/09/10 00:50:50;;;;;;;1.73;1.20;;;16.30;99.90;;;;;;5068774;28;20043;-88
2022/09/10 00:53:21;;;;;;;3.05;1.15;;;16.30;99.90;;;;;;5069478;28;20017;-87
2022/09/10 00:55:52;;;;;;;3.63;1.10;;;16.30;99.90;;;;;;5034150;28;20052;-88
2022/09/10 00:58:21;;;;;;;2.15;1.10;;;16.30;99.90;;;;;;5033546;28;20059;-88
2022/09/10 01:00:47;;;;;;;3.97;1.48;;;16.30;99.90;;;;;;5050188;28;20028;-88
2022/09/10 01:03:15;;;;;;;3.40;1.50;;;16.30;99.90;;;;;;5050243;28;20036;-87
2022/09/10 01:05:45;;;;;;;2.95;1.58;;;16.30;99.90;;;;;;5050467;28;20040;-83
2022/09/10 01:08:16;;;;;;;2.08;1.30;;;16.30;99.90;;;;;;5068800;28;20033;-85
2022/09/10 01:10:58;;;;;;;4.30;1.45;;;16.30;99.90;;;;;;5053908;28;20033;-88
2022/09/10 01:13:45;;;;;;;5.95;3.30;;;16.30;99.90;;;;;;5031783;28;20029;-88
2022/09/10 01:16:26;;;;;;;3.50;1.60;;;16.40;99.90;;;;;;5041408;28;20042;-88
2022/09/10 01:19:04;;;;;;;3.20;1.63;;;16.40;99.90;;;;;;5068097;28;20017;-87
2022/09/10 01:21:43;;;;;;;3.22;1.60;;;16.40;99.90;;;;;;5033147;28;20009;-86
2022/09/10 01:24:21;;;;;;;3.20;1.63;;;16.40;99.90;;;;;;5047708;28;20036;-86
2022/09/10 01:27:21;;;;;;;4.75;1.67;;;16.40;99.90;;;;;;5057326;28;20028;-86
2022/09/10 01:29:58;;;;;;;3.17;1.90;;;16.30;99.90;;;;;;5075182;28;20041;-87
2022/09/10 01:32:38;;;;;;;3.20;1.88;;;16.30;99.90;;;;;;5059400;28;20061;-88
2022/09/10 01:35:31;;;;;;;1.67;1.55;;;16.30;99.90;;;;;;5059124;28;20646;-85
2022/09/10 01:38:03;;;;;;;3.47;1.83;;;16.30;99.90;;;;;;5059183;28;20068;-84
2022/09/10 01:40:31;;;;;;;2.95;1.70;;;16.20;99.90;;;;;;5077307;28;20041;-84
2022/09/10 01:43:04;;;;;;;3.55;1.80;;;16.20;99.90;;;;;;5060539;28;20021;-84
2022/09/10 01:45:50;;;;;;;5.30;1.88;;;16.20;99.90;;;;;;5060123;28;20017;-86
2022/09/10 01:48:42;;;;;;;4.20;1.65;;;16.20;99.90;;;;;;5059342;28;20028;-85
2022/09/10 01:51:35;;;;;;;4.22;1.92;;;16.20;99.90;;;;;;5076938;28;20089;-86
2022/09/10 01:54:12;;;;;;;4.05;2.20;;;16.20;99.90;;;;;;5058757;28;20051;-85
2022/09/10 01:56:44;;;;;;;4.10;1.52;;;16.10;99.90;;;;;;5056377;28;20032;-86
2022/09/10 01:59:37;;;;;;;3.17;1.67;;;16.10;99.90;;;;;;5055938;28;20036;-86
2022/09/10 02:02:17;;;;;;;4.75;1.67;;;16.10;99.90;;;;;;5055530;28;20024;-86
2022/09/10 02:04:45;;;;;;;2.63;1.67;;;16.20;99.90;;;;;;5053296;28;20021;-86
2022/09/10 02:07:13;;;;;;;4.55;1.88;;;16.20;99.90;;;;;;5054414;28;20097;-87
2022/09/10 02:09:41;;;;;;;3.78;1.85;;;16.20;99.90;;;;;;5056922;28;20041;-86
2022/09/10 02:12:07;;;;;;;5.20;2.17;;;16.20;99.90;;;;;;5059936;28;20040;-86
2022/09/10 02:14:54;;;;;;;9.10;2.35;;;16.20;99.90;;;;;;5044439;28;20037;-87
2022/09/10 02:17:30;;;;;;;4.32;2.17;;;16.20;99.90;;;;;;5043077;28;20029;-84
2022/09/10 02:19:57;;;;;;;3.45;2.25;;;16.20;99.90;;;;;;5059678;28;20034;-85
2022/09/10 02:22:23;;;;;;;2.92;1.90;;;16.30;99.90;;;;;;5043021;28;20131;-85
2022/09/10 02:24:51;;;;;;;9.07;2.20;;;16.30;99.90;;;;;;5073855;28;20025;-89
2022/09/10 02:27:17;;;;;;;9.25;2.35;;;16.30;99.90;;;;;;5072749;28;20515;-87
2022/09/10 02:29:43;;;;;;;6.22;2.20;;;16.20;99.90;;;;;;5055553;28;20084;-86
2022/09/10 02:32:09;;;;;;;8.60;2.47;;;16.20;99.90;;;;;;5051248;28;20036;-87
2022/09/10 02:34:35;;;;;;;5.57;2.63;;;16.20;99.90;;;;;;5048164;28;20041;-87
2022/09/10 02:37:02;;;;;;;4.45;3.03;;;16.20;99.90;;;;;;5052950;28;20025;-86
2022/09/10 02:39:29;;;;;;;8.82;3.30;;;16.20;99.90;;;;;;5077707;28;20025;-87
2022/09/10 02:41:56;;;;;;;6.22;3.25;;;16.20;99.90;;;;;;5060152;28;20088;-86
2022/09/10 02:44:22;;;;;;;5.88;3.25;;;16.20;99.90;;;;;;5063497;28;20021;-84
2022/09/10 02:46:48;;;;;;;5.05;2.95;;;16.20;99.90;;;;;;5079816;28;20029;-87
2022/09/10 02:49:14;;;;;;;5.47;2.70;;;16.20;99.90;;;;;;5040139;28;20052;-86
2022/09/10 02:51:41;;;;;;;4.97;3.20;;;16.30;99.90;;;;;;5056074;28;20017;-86
2022/09/10 02:54:07;;;;;;;7.63;3.30;;;16.20;99.90;;;;;;5082703;28;20028;-84
2022/09/10 02:56:33;;;;;;;6.75;3.00;;;16.20;99.90;;;;;;5069501;28;20044;-87
2022/09/10 02:58:59;;;;;;;6.90;3.00;;;16.20;99.90;;;;;;5065947;28;20029;-86
2022/09/10 03:01:27;;;;;;;5.68;3.22;;;16.20;99.90;;;;;;5066810;28;20080;-84
2022/09/10 03:04:02;;;;;;;6.53;3.30;;;16.10;99.90;;;;;;5049710;28;20036;-85
2022/09/10 03:06:29;;;;;;;8.10;2.83;;;16.10;99.90;;;;;;5065792;28;20011;-86
2022/09/10 03:08:56;;;;;;;6.40;3.05;;;16.20;99.90;;;;;;5082504;28;20025;-84
2022/09/10 03:11:23;;;;;;;6.63;3.03;;;16.20;99.90;;;;;;5054221;28;20006;-88
2022/09/10 03:13:49;;;;;;;8.32;3.47;;;16.10;99.90;;;;;;5083063;28;20040;-86
2022/09/10 03:16:17;;;;;;;7.05;3.25;;;16.10;99.90;;;;;;5061285;28;20538;-86
2022/09/10 03:18:44;;;;;;;5.05;3.30;;;16.10;99.90;;;;;;5077026;28;20017;-84
2022/09/10 03:21:12;;;;;;;7.60;3.50;;;16.10;99.90;;;;;;5060214;28;20064;-86
2022/09/10 03:23:39;;;;;;;6.85;3.65;;;16.10;99.90;;;;;;5045138;28;20009;-84
2022/09/10 03:26:06;;;;;;;8.57;3.40;;;16.00;99.90;;;;;;5044675;28;20037;-84
2022/09/10 03:28:32;;;;;;;6.03;3.53;;;16.00;99.90;;;;;;5079114;28;20050;-85
2022/09/10 03:31:00;;;;;;;7.85;3.22;;;15.90;99.90;;;;;;5079122;28;20021;-84
2022/09/10 03:33:28;;;;;;;8.07;3.33;;;16.00;99.90;;;;;;5061764;28;20044;-83
2022/09/10 03:35:54;;;;;;;6.95;3.67;;;16.00;99.90;;;;;;5057370;28;20032;-86
2022/09/10 03:38:26;;;;;;;6.10;3.10;;;16.00;99.90;;;;;;5060741;28;20050;-84
2022/09/10 03:40:53;;;;;;;8.93;4.65;;;16.00;99.90;;;;;;5061378;28;20013;-83
2022/09/10 03:43:21;;;;;;;6.25;4.75;;;16.00;99.90;;;;;;5058935;28;20025;-86
2022/09/10 03:45:48;;;;;;;12.20;6.32;;;16.00;99.90;;;;;;5057885;28;20029;-86
2022/09/10 03:48:16;;;;;;;17.13;6.82;;;16.00;99.90;;;;;;5082070;28;20013;-86
2022/09/10 03:50:43;;;;;;;16.00;7.35;;;16.00;99.90;;;;;;5066452;28;20021;-86
2022/09/10 03:53:16;;;;;;;14.60;7.45;;;16.00;99.90;;;;;;5069822;28;20021;-86
2022/09/10 03:55:44;;;;;;;18.70;8.35;;;16.00;99.90;;;;;;5097243;28;20100;-85
2022/09/10 03:58:10;;;;;;;20.38;8.63;;;16.00;99.90;;;;;;5063746;28;20112;-87
2022/09/10 04:00:36;;;;;;;19.40;9.10;;;16.00;99.90;;;;;;5080974;28;20029;-84
2022/09/10 04:03:02;;;;;;;16.55;9.05;;;16.00;99.90;;;;;;5097290;28;20041;-87
2022/09/10 04:05:28;;;;;;;16.33;9.85;;;16.10;99.90;;;;;;5063987;28;20017;-89
2022/09/10 04:07:57;;;;;;;17.15;10.10;;;16.10;99.90;;;;;;5080951;28;20042;-84
2022/09/10 04:10:26;;;;;;;19.60;9.50;;;16.10;99.90;;;;;;5082247;28;20012;-85
2022/09/10 04:12:52;;;;;;;18.98;9.90;;;16.20;99.90;;;;;;5099536;28;20062;-87
2022/09/10 04:15:23;;;;;;;19.02;10.18;;;16.10;99.90;;;;;;5064981;28;20017;-89
2022/09/10 04:17:51;;;;;;;19.33;9.57;;;16.10;99.90;;;;;;5077437;28;20094;-83
2022/09/10 04:20:22;;;;;;;17.85;9.93;;;16.20;99.90;;;;;;5078416;28;20020;-86
2022/09/10 04:22:50;;;;;;;14.05;8.68;;;16.20;99.90;;;;;;5080160;28;20020;-84
2022/09/10 04:25:17;;;;;;;18.33;9.57;;;16.20;99.90;;;;;;5063157;28;20039;-85
2022/09/10 04:27:44;;;;;;;15.00;8.23;;;16.20;99.90;;;;;;5081594;28;20028;-85
2022/09/10 04:30:12;;;;;;;17.77;8.18;;;16.20;99.90;;;;;;5081512;28;20052;-84
2022/09/10 04:32:38;;;;;;;14.95;7.40;;;16.20;99.90;;;;;;5065099;28;20025;-83
2022/09/10 04:35:05;;;;;;;14.75;8.32;;;16.20;99.90;;;;;;5099109;28;20022;-85
2022/09/10 04:37:33;;;;;;;15.00;8.30;;;16.20;99.90;;;;;;5081733;28;20105;-84
2022/09/10 04:39:59;;;;;;;13.57;7.07;;;16.20;99.90;;;;;;5081572;28;20013;-84
2022/09/10 04:42:27;;;;;;;15.68;6.85;;;16.20;99.90;;;;;;5081511;28;20016;-84
2022/09/10 04:44:53;;;;;;;11.65;6.15;;;16.20;99.90;;;;;;5079721;28;20031;-84
2022/09/10 04:47:20;;;;;;;11.30;6.22;;;16.30;99.90;;;;;;5098592;28;20040;-84
2022/09/10 04:49:46;;;;;;;11.55;5.68;;;16.20;99.90;;;;;;5081358;28;20013;-83
2022/09/10 04:52:12;;;;;;;11.40;6.68;;;16.20;99.90;;;;;;5077529;28;20048;-84
2022/09/10 04:54:38;;;;;;;12.75;6.20;;;16.30;99.90;;;;;;5055277;28;20006;-85
2022/09/10 04:57:05;;;;;;;12.07;6.20;;;16.30;99.90;;;;;;5049253;28;20032;-86
2022/09/10 04:59:32;;;;;;;9.95;5.68;;;16.30;99.90;;;;;;5061122;28;20032;-83
2022/09/10 05:02:02;;;;;;;12.32;6.20;;;16.30;99.90;;;;;;5061582;28;20021;-85
2022/09/10 05:04:28;;;;;;;12.00;4.93;;;16.30;99.90;;;;;;5061691;28;20016;-85
2022/09/10 05:06:57;;;;;;;11.05;4.40;;;16.30;99.90;;;;;;5060771;28;20017;-90
2022/09/10 05:09:24;;;;;;;12.07;5.13;;;16.30;99.90;;;;;;5059580;28;20097;-88
2022/09/10 05:11:49;;;;;;;8.05;4.35;;;16.30;99.90;;;;;;5076530;28;20036;-86
2022/09/10 05:14:18;;;;;;;7.13;4.30;;;16.30;99.90;;;;;;5061410;28;20017;-85
2022/09/10 05:16:45;;;;;;;10.65;3.78;;;16.40;99.90;;;;;;5068697;23;20047;-84
2022/09/10 05:19:16;;;;;;;8.00;3.85;;;16.40;99.90;;;;;;5025102;28;20088;-84
2022/09/10 05:21:49;;;;;;;7.63;3.22;;;16.40;99.90;;;;;;5059311;28;20052;-84
2022/09/10 05:24:16;;;;;;;5.18;3.10;;;16.40;99.90;;;;;;5043163;28;20545;-84
2022/09/10 05:26:43;;;;;;;5.38;3.13;;;16.30;99.90;;;;;;5070433;28;20453;-83
2022/09/10 05:29:10;;;;;;;5.45;2.83;;;16.30;99.90;;;;;;5061545;28;20299;-83
2022/09/10 05:31:36;;;;;;;5.72;3.38;;;16.30;99.90;;;;;;5084279;28;20028;-83
2022/09/10 05:34:02;;;;;;;7.78;2.78;;;16.30;99.90;;;;;;5089332;28;20050;-83
2022/09/10 05:36:32;;;;;;;9.15;3.53;;;16.30;99.90;;;;;;5061372;28;20021;-84
2022/09/10 05:38:59;;;;;;;5.68;3.17;;;16.20;99.90;;;;;;5060280;28;20031;-84
2022/09/10 05:41:30;;;;;;;6.70;3.20;;;16.20;99.90;;;;;;5078270;28;20055;-84
2022/09/10 05:43:58;;;;;;;5.47;3.00;;;16.20;99.90;;;;;;5066370;28;20055;-83
2022/09/10 05:46:26;;;;;;;6.95;3.30;;;16.20;99.90;;;;;;5069675;28;20087;-84
2022/09/10 05:48:56;;;;;;;7.30;3.20;;;16.30;99.90;;;;;;5066485;28;20028;-83
2022/09/10 05:51:26;;;;;;;3.72;2.65;;;16.40;99.90;;;;;;5060898;28;20023;-84
2022/09/10 05:53:54;;;;;;;5.43;2.97;;;16.50;99.90;;;;;;5059690;28;20017;-84
2022/09/10 05:56:19;;;;;;;3.83;2.67;;;16.60;99.90;;;;;;5095915;28;20012;-84
2022/09/10 05:58:45;;;;;;;4.07;2.65;;;16.70;99.90;;;;;;5095277;28;20078;-83
2022/09/10 06:01:13;;;;;;;4.78;2.72;;;16.70;99.90;;;;;;5078163;28;20039;-83
2022/09/10 06:03:39;;;;;;;3.42;2.40;;;16.90;99.90;;;;;;5088938;28;20029;-83
2022/09/10 06:06:05;;;;;;;4.88;3.00;;;16.90;99.90;;;;;;5061788;28;20112;-84
2022/09/10 06:08:34;;;;;;;4.90;2.50;;;17.10;99.90;;;;;;5062964;28;20508;-83
2022/09/10 06:11:08;;;;;;;5.00;2.80;;;17.10;99.90;;;;;;5067292;28;20024;-84
2022/09/10 06:13:42;;;;;;;4.03;2.75;;;17.30;99.90;;;;;;5066847;28;20021;-86
2022/09/10 06:16:08;;;;;;;9.02;2.47;;;17.30;99.90;;;;;;5069441;28;20500;-84
2022/09/10 06:18:34;;;;;;;4.82;2.58;;;17.40;99.90;;;;;;5061969;28;20106;-83
2022/09/10 06:21:04;;;;;;;5.18;2.53;;;17.50;99.90;;;;;;5062635;28;20121;-84
2022/09/10 06:23:30;;;;;;;4.22;2.20;;;17.50;99.90;;;;;;5046876;28;20029;-84
2022/09/10 06:26:05;;;;;;;5.60;2.47;;;17.60;99.90;;;;;;5049774;28;20025;-84
2022/09/10 06:28:33;;;;;;;4.43;2.25;;;17.60;99.90;;;;;;5062907;28;20032;-84
2022/09/10 06:31:00;;;;;;;5.68;2.65;;;17.60;99.90;;;;;;5063753;28;20013;-85
2022/09/10 06:33:26;;;;;;;4.45;2.38;;;17.70;99.90;;;;;;5063925;28;20045;-84
2022/09/10 06:35:57;;;;;;;5.88;2.80;;;17.70;99.90;;;;;;5078903;28;20029;-84
2022/09/10 06:38:26;;;;;;;3.65;2.30;;;17.80;99.90;;;;;;5070537;28;20093;-83
2022/09/10 06:40:58;;;;;;;5.50;2.42;;;17.80;99.90;;;;;;5070011;28;20033;-84
2022/09/10 06:43:25;;;;;;;5.50;2.45;;;17.90;99.90;;;;;;5069701;28;20027;-86
2022/09/10 06:46:12;;;;;;;6.22;2.35;;;18.00;99.90;;;;;;5073806;28;20047;-84
2022/09/10 06:48:51;;;;;;;4.45;2.10;;;18.10;99.90;;;;;;5070266;28;20037;-83
2022/09/10 06:51:18;;;;;;;6.13;2.33;;;18.20;99.90;;;;;;5070967;28;20112;-85
2022/09/10 06:53:45;;;;;;;4.57;2.13;;;18.20;99.90;;;;;;5072841;28;20063;-85
2022/09/10 06:56:14;;;;;;;4.22;2.08;;;18.30;99.90;;;;;;5049496;28;20050;-85
2022/09/10 06:58:40;;;;;;;8.57;2.15;;;18.40;99.90;;;;;;5045157;28;20045;-86
2022/09/10 07:01:14;;;;;;;5.80;2.42;;;18.50;99.90;;;;;;5046512;28;20033;-85
2022/09/10 07:03:44;;;;;;;6.20;2.03;;;18.80;99.90;;;;;;5048295;28;20028;-83
2022/09/10 07:06:15;;;;;;;5.43;2.30;;;18.90;99.90;;;;;;5074663;28;20325;-82
2022/09/10 07:08:43;;;;;;;5.47;2.25;;;18.80;99.90;;;;;;5059178;28;20088;-84
2022/09/10 07:11:13;;;;;;;6.78;1.98;;;18.90;99.90;;;;;;5058730;28;20029;-84
2022/09/10 07:13:41;;;;;;;3.40;1.80;;;18.80;99.90;;;;;;5046077;28;20036;-83
2022/09/10 07:16:07;;;;;;;5.82;2.40;;;18.80;99.90;;;;;;5045563;28;20025;-85
2022/09/10 07:18:34;;;;;;;6.22;2.20;;;18.70;99.90;;;;;;5045412;28;20052;-85
2022/09/10 07:21:10;;;;;;;3.90;2.20;;;18.70;99.90;;;;;;5062163;28;20052;-87
2022/09/10 07:23:42;;;;;;;3.92;2.00;;;18.70;99.90;;;;;;5047358;28;20123;-84
2022/09/10 07:26:11;;;;;;;5.78;2.55;;;18.70;99.90;;;;;;5057829;28;20037;-83
2022/09/10 07:28:43;;;;;;;5.70;2.38;;;18.70;99.90;;;;;;5057425;28;20031;-84
2022/09/10 07:31:23;;;;;;;6.18;3.10;;;18.70;99.90;;;;;;5076668;28;20040;-85
2022/09/10 07:33:50;;;;;;;12.27;2.45;;;18.70;99.90;;;;;;5060239;28;20013;-84
2022/09/10 07:36:17;;;;;;;4.68;2.30;;;18.80;99.90;;;;;;5045318;28;20040;-85
2022/09/10 07:38:45;;;;;;;7.13;1.98;;;18.80;99.90;;;;;;5043803;28;20071;-84
2022/09/10 07:41:12;;;;;;;3.92;2.15;;;18.90;99.90;;;;;;5069355;28;20007;-86
2022/09/10 07:43:40;;;;;;;4.00;1.77;;;18.90;99.90;;;;;;5098045;28;20079;-83
2022/09/10 07:46:12;;;;;;;9.55;2.80;;;18.90;99.90;;;;;;5079523;28;20104;-84
2022/09/10 07:48:40;;;;;;;6.82;2.55;;;18.90;99.90;;;;;;5080586;28;20040;-86
2022/09/10 07:51:07;;;;;;;5.30;2.15;;;18.90;99.90;;;;;;5079451;28;20016;-86
2022/09/10 07:53:34;;;;;;;4.20;2.30;;;18.90;99.90;;;;;;5069634;28;20037;-86
2022/09/10 07:56:04;;;;;;;4.00;2.20;;;18.90;99.90;;;;;;5069908;28;20009;-86
2022/09/10 07:58:34;;;;;;;5.43;1.92;;;18.90;99.90;;;;;;5080762;28;20093;-86
2022/09/10 08:01:13;;;;;;;4.50;2.10;;;19.10;99.90;;;;;;5064387;28;20473;-86
2022/09/10 08:03:41;;;;;;;6.25;2.22;;;19.10;99.90;;;;;;5075432;28;20026;-87
2022/09/10 08:06:09;;;;;;;4.25;1.90;;;19.30;99.90;;;;;;5073791;28;20025;-88
2022/09/10 08:08:38;;;;;;;10.75;2.30;;;19.40;99.90;;;;;;5038185;28;20088;-86
2022/09/10 08:11:10;;;;;;;5.25;2.20;;;19.50;99.90;;;;;;5052219;28;20063;-86
2022/09/10 08:13:39;;;;;;;4.90;2.45;;;19.60;99.90;;;;;;5046466;28;20111;-86
2022/09/10 08:16:11;;;;;;;5.68;1.85;;;19.70;99.90;;;;;;5062496;28;20024;-87
2022/09/10 08:18:38;;;;;;;3.20;1.70;;;19.90;99.90;;;;;;5063382;28;20059;-87
2022/09/10 08:21:09;;;;;;;3.05;1.85;;;20.00;99.90;;;;;;5073250;28;20035;-85
2022/09/10 08:23:38;;;;;;;4.82;1.95;;;20.20;99.90;;;;;;5062968;28;20095;-86
2022/09/10 08:26:06;;;;;;;5.60;2.33;;;20.30;99.90;;;;;;5094355;28;20048;-86
2022/09/10 08:28:34;;;;;;;5.43;2.30;;;20.40;99.90;;;;;;5076184;28;20029;-84
2022/09/10 08:31:10;;;;;;;4.03;1.75;;;20.60;99.90;;;;;;5061586;28;20021;-86
2022/09/10 08:33:51;;;;;;;6.22;2.10;;;20.70;99.90;;;;;;5077612;28;20013;-86
2022/09/10 08:36:18;;;;;;;5.60;2.13;;;21.00;99.90;;;;;;5094103;28;20031;-87
2022/09/10 08:38:45;;;;;;;7.05;1.90;;;20.90;99.90;;;;;;5079812;28;20044;-85
2022/09/10 08:41:18;;;;;;;6.20;2.03;;;21.00;99.90;;;;;;5078243;28;20043;-88
2022/09/10 08:43:52;;;;;;;4.10;2.05;;;21.00;99.90;;;;;;5096160;28;20021;-86
2022/09/10 08:46:26;;;;;;;6.45;2.05;;;20.90;99.90;;;;;;5078904;28;20158;-85
2022/09/10 08:49:16;;;;;;;3.38;1.60;;;20.90;99.90;;;;;;5078160;28;20035;-85
2022/09/10 08:51:54;;;;;;;3.00;1.65;;;20.90;99.90;;;;;;5061522;28;20032;-87
2022/09/10 08:54:48;;;;;;;4.70;2.05;;;20.80;99.90;;;;;;5095951;28;20024;-86
2022/09/10 08:57:35;;;;;;;7.33;1.70;;;20.90;99.90;;;;;;5073390;28;20054;-84
2022/09/10 09:00:02;;;;;;;4.28;1.95;;;21.10;99.90;;;;;;5077737;28;20028;-85
2022/09/10 09:02:50;;;;;;;4.47;2.00;;;21.20;99.90;;;;;;5078186;28;20028;-85
2022/09/10 09:05:22;;;;;;;3.55;1.80;;;21.60;99.90;;;;;;5077431;28;20039;-85
2022/09/10 09:07:51;;;;;;;3.95;1.90;;;22.10;99.90;;;;;;5069967;28;20109;-85
2022/09/10 09:10:19;;;;;;;7.40;1.85;;;22.60;99.90;;;;;;5056696;28;20017;-85
2022/09/10 09:13:08;;;;;;;4.82;1.30;;;23.00;99.90;;;;;;5095125;28;20033;-83
2022/09/10 09:16:08;;;;;;;3.33;1.60;;;23.90;99.90;;;;;;5059896;28;20036;-85
2022/09/10 09:18:34;;;;;;;3.20;1.40;;;24.90;99.90;;;;;;4998739;28;20046;-85
2022/09/10 09:21:11;;;;;;;2.70;1.40;;;25.90;99.00;;;;;;5070322;28;20105;-85
2022/09/10 09:23:41;;;;;;;3.50;1.10;;;27.20;97.20;;;;;;5067482;28;20058;-84
2022/09/10 09:26:12;;;;;;;5.88;1.40;;;28.40;94.50;;;;;;5052611;28;20403;-85
2022/09/10 09:29:00;;;;;;;6.65;1.27;;;28.30;92.80;;;;;;5069006;28;20036;-84
2022/09/10 09:31:33;;;;;;;3.35;1.50;;;28.10;92.10;;;;;;5069343;28;20044;-85
2022/09/10 09:34:22;;;;;;;2.67;1.52;;;27.60;91.80;;;;;;5073117;28;20181;-83
2022/09/10 09:36:52;;;;;;;2.92;1.30;;;26.80;92.40;;;;;;5092411;28;20009;-83
2022/09/10 09:39:58;;;;;;;2.42;1.33;;;26.60;93.10;;;;;;5079907;28;20033;-85
2022/09/10 09:42:40;;;;;;;1.50;1.02;;;27.70;92.30;;;;;;5096832;28;20074;-85
2022/09/10 09:45:26;;;;;;;4.40;1.13;;;29.30;89.50;;;;;;5079907;28;20074;-85
2022/09/10 09:47:53;;;;;;;1.90;1.20;;;28.80;89.80;;;;;;5096467;28;20188;-85
2022/09/10 09:50:20;;;;;;;4.28;1.10;;;27.70;89.90;;;;;;5079036;28;20052;-84
2022/09/10 09:52:46;;;;;;;4.63;1.40;;;26.10;91.40;;;;;;5095656;28;20040;-84
2022/09/10 09:55:39;;;;;;;3.75;1.52;;;25.30;92.60;;;;;;5086800;28;20123;-85
2022/09/10 09:58:23;;;;;;;7.75;1.60;;;24.70;93.20;;;;;;5085809;28;20034;-84
2022/09/10 10:01:03;;;;;;;4.57;1.10;;;24.20;94.10;;;;;;5087821;28;20100;-85
2022/09/10 10:03:32;;;;;;;2.17;1.63;;;24.10;94.60;;;;;;5070299;28;20032;-85
2022/09/10 10:06:04;;;;;;;4.80;1.58;;;24.60;94.30;;;;;;5089690;28;20035;-85
2022/09/10 10:08:36;;;;;;;5.22;1.23;;;25.40;93.90;;;;;;5073389;28;20032;-85
2022/09/10 10:11:03;;;;;;;3.30;1.38;;;27.10;92.60;;;;;;5091349;28;20028;-86
2022/09/10 10:13:40;;;;;;;5.30;1.17;;;28.80;91.00;;;;;;5093326;28;20105;-84
2022/09/10 10:16:32;;;;;;;3.33;1.75;;;30.70;88.60;;;;;;5090897;28;20051;-85
2022/09/10 10:18:58;;;;;;;5.25;1.50;;;32.30;82.60;;;;;;5086530;28;20048;-86
2022/09/10 10:21:32;;;;;;;2.90;1.23;;;33.30;79.30;;;;;;5087741;28;20117;-85
2022/09/10 10:23:58;;;;;;;1.83;1.05;;;33.90;75.10;;;;;;5054387;28;20032;-86
2022/09/10 10:26:27;;;;;;;2.83;1.45;;;34.80;72.80;;;;;;5093015;28;20033;-85
2022/09/10 10:29:00;;;;;;;1.63;1.05;;;35.20;70.60;;;;;;5088364;28;20082;-86
2022/09/10 10:31:37;;;;;;;3.83;1.55;;;35.40;68.30;;;;;;5087894;28;20627;-86
2022/09/10 10:34:22;;;;;;;2.63;1.00;;;36.10;66.70;;;;;;5087395;28;20044;-85
2022/09/10 10:37:40;;;;;;;2.05;1.30;;;35.90;65.00;;;;;;5086541;28;20047;-86
2022/09/10 10:40:25;;;;;;;2.60;0.90;;;34.00;66.50;;;;;;5052725;28;20048;-86
2022/09/10 10:42:58;;;;;;;;;;;31.80;68.80;;;;;;5069574;28;20032;-86
2022/09/10 10:45:47;;;;;;;1.50;1.10;;;29.70;72.20;;;;;;5085191;28;19913;-85
2022/09/10 10:48:22;;;;;;;2.97;1.20;;;27.70;76.50;;;;;;5084618;28;20029;-85
2022/09/10 10:51:05;;;;;;;;;;;26.90;78.30;;;;;;5085867;28;20071;-85
2022/09/10 10:54:01;;;;;;;4.57;1.83;;;26.10;79.50;;;;;;5086339;28;19912;-85
2022/09/10 10:56:45;;;;;;;2.70;0.60;;;25.70;81.30;;;;;;5087066;28;20037;-85
2022/09/10 10:59:51;;;;;;;1.27;0.82;;;25.20;82.50;;;;;;5068537;28;20033;-85
2022/09/10 11:02:32;;;;;;;4.05;1.30;;;25.00;83.80;;;;;;5015438;28;20106;-85
2022/09/10 11:05:03;;;;;;;3.60;1.20;;;24.90;84.70;;;;;;4989192;28;20084;-84
2022/09/10 11:07:42;;;;;;;3.00;1.35;;;25.00;85.70;;;;;;5048244;28;20070;-85
2022/09/10 11:10:39;;;;;;;2.15;0.93;;;26.70;82.50;;;;;;5086908;28;20028;-86
2022/09/10 11:13:14;;;;;;;2.53;0.90;;;29.70;76.90;;;;;;5087210;28;20025;-87
2022/09/10 11:15:58;;;;;;;1.98;1.00;;;31.20;73.90;;;;;;5085570;28;20033;-86
2022/09/10 11:19:05;;;;;;;2.03;0.90;;;32.00;69.90;;;;;;5101749;22;20044;-86
2022/09/10 11:21:39;;;;;;;2.50;0.95;;;31.30;69.90;;;;;;5062392;28;20113;-84
2022/09/10 11:24:14;;;;;;;1.58;1.08;;;30.00;70.40;;;;;;5080252;28;20024;-86
2022/09/10 11:26:50;;;;;;;1.33;0.82;;;28.90;71.60;;;;;;5062266;28;20049;-85
2022/09/10 11:29:34;;;;;;;5.60;0.90;;;28.20;73.50;;;;;;5044555;28;20052;-89
2022/09/10 11:32:05;;;;;;;4.38;1.08;;;27.70;74.40;;;;;;5061099;28;20045;-89
2022/09/10 11:34:57;;;;;;;1.55;0.80;;;27.70;75.10;;;;;;5059121;28;20032;-88
2022/09/10 11:37:53;;;;;;;2.63;0.90;;;27.30;75.70;;;;;;5078140;28;20032;-86
2022/09/10 11:40:31;;;;;;;1.35;0.90;;;28.30;75.30;;;;;;5048373;28;20016;-89
2022/09/10 11:43:06;;;;;;;2.42;1.10;;;29.40;73.20;;;;;;5064496;28;20026;-90
2022/09/10 11:45:42;;;;;;;4.47;1.13;;;28.90;73.30;;;;;;5055980;28;20024;-92
2022/09/10 11:48:16;;;;;;;3.42;1.08;;;28.30;74.60;;;;;;5059864;28;20032;-90
2022/09/10 11:50:51;;;;;;;4.72;1.23;;;27.90;74.90;;;;;;5069945;28;20064;-90
2022/09/10 11:53:40;;;;;;;3.90;0.82;;;28.00;75.00;;;;;;5060056;28;20113;-85
2022/09/10 11:56:16;;;;;;;3.10;1.20;;;29.20;73.60;;;;;;5042687;28;20033;-86
2022/09/10 11:59:41;;;;;;;2.60;1.35;;;30.40;72.00;;;;;;5062613;28;20018;-87
2022/09/10 12:02:45;;;;;;;4.78;1.30;;;30.10;72.20;;;;;;4980575;28;20103;-86
2022/09/10 12:05:45;;;;;;;1.27;1.03;;;28.90;72.00;;;;;;4964298;28;20030;-86
2022/09/10 12:08:17;;;;;;;3.83;1.10;;;28.30;73.50;;;;;;5049888;28;20042;-87
2022/09/10 12:11:28;;;;;;;6.32;1.83;;;28.20;74.30;;;;;;5048175;28;20045;-85
2022/09/10 12:13:56;;;;;;;2.33;1.30;;;28.20;74.70;;;;;;5062366;28;20039;-87
2022/09/10 12:16:30;;;;;;;3.38;1.42;;;28.20;74.90;;;;;;5062086;28;20029;-86
2022/09/10 12:18:57;;;;;;;4.20;1.20;;;28.60;74.50;;;;;;5078952;28;20021;-87
2022/09/10 12:21:40;;;;;;;2.08;1.35;;;29.10;73.60;;;;;;5078100;28;20029;-86
2022/09/10 12:24:25;;;;;;;2.10;1.40;;;29.30;72.30;;;;;;5077890;28;20033;-87
2022/09/10 12:26:53;;;;;;;6.10;2.20;;;28.70;72.90;;;;;;5054531;28;20036;-86
2022/09/10 12:29:28;;;;;;;5.45;1.63;;;28.00;74.60;;;;;;5070628;28;20021;-88
2022/09/10 12:32:06;;;;;;;5.70;1.77;;;27.70;75.30;;;;;;5055193;28;20063;-90
2022/09/10 12:34:34;;;;;;;3.05;1.63;;;27.90;75.10;;;;;;5074278;28;20033;-88
2022/09/10 12:36:59;;;;;;;1.63;1.20;;;28.40;74.40;;;;;;5039456;28;20021;-89
2022/09/10 12:39:27;;;;;;;3.08;1.45;;;28.60;73.90;;;;;;5055119;28;20040;-89
2022/09/10 12:41:55;;;;;;;3.05;1.33;;;29.10;73.00;;;;;;5058283;28;20033;-88
2022/09/10 12:44:32;;;;;;;2.13;1.17;;;30.30;71.80;;;;;;5077090;28;20017;-88
2022/09/10 12:47:16;;;;;;;1.48;0.90;;;30.10;72.20;;;;;;5056021;28;20139;-87
2022/09/10 12:49:56;;;;;;;3.92;1.00;;;30.10;71.00;;;;;;5046258;28;20029;-90
2022/09/10 12:52:34;;;;;;;5.28;1.33;;;29.60;71.20;;;;;;5048469;28;20044;-89
2022/09/10 12:55:28;;;;;;;5.07;1.33;;;28.50;73.10;;;;;;5037399;28;20093;-90
2022/09/10 12:57:59;;;;;;;6.18;0.95;;;27.20;75.20;;;;;;5053718;28;20025;-87
2022/09/10 13:00:37;;;;;;;2.53;1.10;;;26.10;78.20;;;;;;5072129;28;20043;-87
2022/09/10 13:03:06;;;;;;;6.18;1.20;;;25.60;79.70;;;;;;5053600;28;20040;-89
2022/09/10 13:05:44;;;;;;;3.85;1.30;;;26.20;79.50;;;;;;5076544;28;20029;-87
2022/09/10 13:08:27;;;;;;;2.65;1.00;;;27.20;78.20;;;;;;5077516;28;20021;-84
2022/09/10 13:10:58;;;;;;;1.70;1.23;;;28.40;76.50;;;;;;5058206;28;20038;-86
2022/09/10 13:13:34;;;;;;;3.30;0.80;;;29.30;74.60;;;;;;5056044;28;20045;-88
2022/09/10 13:16:01;;;;;;;2.22;1.35;;;29.60;73.70;;;;;;5071134;28;20035;-89